Latest Coastal Weather Observations for Christmas Island

IDW60701

Issued at 10:03 am WST Saturday 5 December 2020 (issued every 10 minutes, with the page automatically refreshed every 10 minutes)

About coastal observations | Map of coastal stations | Coastal observations for WA | Marine services | Other Formats
Station Details ID: 200790 Name: CHRISTMAS ISLAND AERO Lat: -10.45 Lon: 105.69 Height: 261.0 m
Data from the previous 72 hours. | See also: Recent months at Christmas Island
Date/Time
WST
Wind Sea
Height
m
Swell Vis
km
Cloud Weather Temp
°C
Press
MSL
hPa
Rain since
9am
mm
Dir  Spd
kts
Gust
kts
Height
m
Period
s
Dir
05/10:00am SE 13 20 - - - - 10 Mostly cloudy - 25.4 1008.8 19.8
05/09:33am SE 11 18 - - - - 8 Cloudy - 25.0 1008.9 19.8
05/09:30am SE 12 20 - - - - 8 Partly cloudy - 24.8 1008.9 19.8
05/09:02am SE 10 18 - - - - 6 Partly cloudy - 24.9 1008.8 19.4
05/09:00am SE 10 18 - - - - 10 Partly cloudy - 24.8 1008.8 19.2
05/08:30am SE 11 18 - - - - 10 Partly cloudy - 24.9 1008.6 18.4
05/08:14am ESE 11 21 - - - - 10 Partly cloudy - 24.3 1008.3 18.4
05/08:00am ESE 11 16 - - - - 1 Partly cloudy - 24.5 1008.4 18.4
05/07:44am SE 10 15 - - - - 6 Cloudy - 24.3 1008.4 18.0
05/07:36am SE 11 15 - - - - 10 Cloudy - 24.4 1008.2 17.8
05/07:30am ESE 10 15 - - - - 10 Cloudy - 24.7 1008.1 17.8
05/07:17am SE 11 16 - - - - 6 Cloudy - 24.4 1008.0 17.6
05/07:00am ESE 11 17 - - - - 10 Cloudy - 24.7 1007.8 17.2
05/06:30am ESE 10 16 - - - - 10 Partly cloudy - 24.4 1007.4 16.6
05/06:23am ESE 10 14 - - - - 10 Partly cloudy - 24.4 1007.4 16.6
05/06:00am ESE 10 13 - - - - 0.1 Cloudy - 24.3 1007.2 16.6
05/05:30am ESE 10 15 - - - - 0.3 Partly cloudy - 24.4 1006.8 15.0
05/05:29am ESE 10 16 - - - - 0.5 Partly cloudy - 24.5 1006.8 15.0
05/05:28am ESE 10 16 - - - - 0.7 Partly cloudy - 24.4 1006.8 15.0
05/05:24am ESE 10 16 - - - - 4 Partly cloudy - 24.5 1006.9 15.0
05/05:00am SE 9 14 - - - - 10 Partly cloudy - 24.6 1006.9 14.8
05/04:30am SE 10 16 - - - - 10 Partly cloudy - 24.5 1006.7 14.8
05/04:00am SE 9 18 - - - - 10 Cloudy - 23.8 1006.8 14.8
05/03:30am ESE 10 14 - - - - 10 Partly cloudy - 24.6 1007.1 14.6
05/03:00am SE 7 10 - - - - 10 Partly cloudy - 24.2 1007.1 14.6
05/02:54am SE 7 11 - - - - 10 Partly cloudy - 24.1 1007.1 14.6
05/02:30am SE 6 9 - - - - 10 Partly cloudy - 24.3 1007.1 13.8
05/02:10am ESE 10 17 - - - - 5 Partly cloudy - 24.3 1007.2 13.6
05/02:00am SE 8 13 - - - - 10 Cloudy - 24.4 1007.2 13.4
05/01:43am ESE 9 14 - - - - 10 Cloudy - 24.7 1007.4 13.4
05/01:30am ESE 8 14 - - - - 5 Partly cloudy - 24.3 1007.7 13.4
05/01:26am SE 8 14 - - - - 5 Partly cloudy - 24.1 1007.8 13.4
05/01:20am ESE 9 15 - - - - 10 Cloudy - 24.5 1007.8 12.4
05/01:02am ESE 10 19 - - - - 5 Partly cloudy - 24.1 1008.0 12.2
05/01:00am ESE 9 19 - - - - 9 Cloudy - 24.2 1008.0 12.0
05/12:48am ESE 8 11 - - - - 10 Partly cloudy - 24.3 1008.2 12.0
05/12:30am SE 10 19 - - - - 2 Partly cloudy - 23.5 1008.6 11.8
05/12:06am SE 9 14 - - - - 5 Partly cloudy - 24.6 1008.7 5.0
05/12:00am ESE 9 14 - - - - 10 Cloudy - 24.8 1008.6 3.4
 
Date/Time
WST
Wind Sea
Height
m
Swell Vis
km
Cloud Weather Temp
°C
Press
MSL
hPa
Rain since
9am
mm
Dir  Spd
kts
Gust
kts
Height
m
Period
s
Dir
04/11:30pm ESE 11 15 - - - - 10 Partly cloudy - 24.8 1008.6 3.4
04/11:00pm SE 9 13 - - - - 10 Cloudy - 24.8 1008.5 3.4
04/10:30pm SE 8 12 - - - - 10 Cloudy - 24.7 1008.7 3.4
04/10:00pm SE 8 12 - - - - 10 Mostly cloudy - 24.5 1008.7 3.4
04/09:30pm ESE 8 11 - - - - 10 Cloudy - 24.5 1008.6 3.4
04/09:00pm SE 8 12 - - - - 10 Partly cloudy - 24.4 1008.2 3.4
04/08:30pm SE 8 12 - - - - 10 Partly cloudy - 24.5 1008.1 3.4
04/08:00pm SE 8 11 - - - - 10 Partly cloudy - 24.5 1007.8 3.4
04/07:30pm SE 8 11 - - - - 10 Cloudy - 24.3 1007.2 3.4
04/07:00pm ESE 7 10 - - - - 10 Mostly cloudy - 24.4 1006.9 3.4
04/06:30pm SE 9 12 - - - - 10 Partly cloudy - 24.4 1006.7 3.4
04/06:00pm SE 7 9 - - - - 10 Partly cloudy - 24.9 1006.3 3.4
04/05:30pm ESE 6 8 - - - - 10 Partly cloudy - 24.8 1006.2 3.4
04/05:03pm ENE 4 6 - - - - 10 Partly cloudy - 24.1 1006.0 3.4
04/05:00pm NE 4 5 - - - - 10 Partly cloudy - 24.1 1006.0 3.4
04/04:43pm E 6 7 - - - - 5 Partly cloudy - 23.9 1006.1 3.4
04/04:40pm ESE 6 7 - - - - 10 Partly cloudy - 23.9 1006.1 3.4
04/04:30pm E 5 7 - - - - 4 Partly cloudy - 24.2 1006.1 3.2
04/04:00pm ENE 8 10 - - - - 1 Cloudy - 24.7 1006.0 0.8
04/03:58pm ENE 8 10 - - - - 4 Partly cloudy - 24.8 1006.0 0.8
04/03:30pm ENE 6 10 - - - - 10 Partly cloudy - 25.6 1006.3 0.8
04/03:25pm E 5 7 - - - - 10 Partly cloudy - 25.6 1006.5 0.8
04/03:22pm E 5 9 - - - - 10 Partly cloudy - 25.6 1006.5 0.8
04/03:15pm E 6 9 - - - - 6 Partly cloudy - 25.5 1006.5 0.8
04/03:13pm E 6 7 - - - - 7 Partly cloudy - 25.5 1006.5 0.8
04/03:00pm E 6 8 - - - - 10 Partly cloudy - 25.7 1006.6 0.8
04/02:30pm E 8 11 - - - - 10 Partly cloudy - 26.4 1006.6 0.8
04/02:00pm NE 7 10 - - - - 10 Partly cloudy - 26.2 1007.1 0.8
04/01:30pm NE 8 12 - - - - 10 Partly cloudy - 25.8 1007.3 0.8
04/01:00pm ENE 10 17 - - - - 10 Cloudy - 26.8 1007.4 0.8
04/12:30pm ENE 9 13 - - - - 10 Cloudy - 26.0 1007.6 0.8
04/12:00pm ENE 8 11 - - - - 10 Partly cloudy - 25.7 1007.8 0.8
04/11:30am NE 8 12 - - - - 10 Cloudy - 26.2 1008.1 0.8
04/11:15am ENE 10 13 - - - - 10 Partly cloudy - 25.5 1008.3 0.8
04/11:00am ENE 7 11 - - - - 2 Cloudy - 24.8 1008.5 0.8
04/10:51am NE 9 13 - - - - 5 Cloudy - 24.7 1008.5 0.2
04/10:30am NE 7 9 - - - - 10 Partly cloudy - 25.3 1008.4 0.0
04/10:14am ENE 6 9 - - - - 10 Partly cloudy - 24.8 1008.5 0.0
04/10:04am ENE 7 9 - - - - 6 Partly cloudy - 24.6 1008.6 0.0
04/10:00am ENE 6 8 - - - - 10 Mostly cloudy - 24.6 1008.5 16.6
04/09:30am NE 5 7 - - - - 10 Cloudy - 24.6 1008.6 16.6
04/09:11am ESE 5 6 - - - - 10 Partly cloudy - 24.3 1008.6 16.6
04/09:00am ESE 4 6 - - - - 4 Partly cloudy - 24.2 1008.6 16.6
04/08:30am ESE 6 8 - - - - 2 Cloudy - 24.1 1008.5 15.8
04/08:00am SE 6 9 - - - - 2 Partly cloudy - 23.9 1008.4 15.6
04/07:32am ESE 8 12 - - - - 6 Partly cloudy - 23.7 1008.0 15.6
04/07:30am ESE 8 12 - - - - 7 Partly cloudy - 23.8 1007.9 15.6
04/07:21am ESE 9 11 - - - - 10 Partly cloudy - 23.7 1007.8 15.6
04/07:02am ESE 7 10 - - - - 5 Partly cloudy - 23.7 1007.5 15.6
04/07:00am ESE 7 10 - - - - 10 Cloudy - 23.7 1007.5 15.6
04/06:43am SE 7 9 - - - - 10 Partly cloudy - 23.5 1007.4 15.6
04/06:30am SE 6 9 - - - - 7 Partly cloudy - 23.4 1007.3 15.6
04/06:00am ESE 8 11 - - - - 2 Cloudy - 23.4 1007.2 15.6
04/05:46am ESE 8 10 - - - - 1 Cloudy - 23.2 1007.0 15.6
04/05:30am ESE 7 9 - - - - 0.5 Cloudy - 23.3 1006.8 15.6
04/05:24am ESE 6 8 - - - - 0.2 Cloudy - 23.4 1006.6 15.6
04/05:00am ENE 9 13 - - - - 0.2 Cloudy - 23.7 1006.8 15.4
04/04:40am SE 7 11 - - - - 5 Partly cloudy - 24.0 1006.9 15.2
04/04:35am SE 5 9 - - - - 10 Partly cloudy - 23.9 1007.0 15.2
04/04:30am ESE 4 5 - - - - 10 Partly cloudy - 23.8 1007.1 15.2
04/04:01am E 4 10 - - - - 5 Partly cloudy - 24.2 1007.4 11.4
04/04:00am E 4 5 - - - - 7 Cloudy - 24.4 1007.4 11.0
04/03:30am ENE 5 8 - - - - 10 Partly cloudy - 24.3 1007.4 10.0
04/03:00am ENE 5 7 - - - - 10 Partly cloudy - 24.2 1007.6 10.0
04/02:30am E 6 8 - - - - 10 Partly cloudy - 24.4 1008.0 10.0
04/02:00am E 6 8 - - - - 10 Partly cloudy - 24.4 1008.5 10.0
04/01:30am E 8 11 - - - - 10 Partly cloudy - 24.5 1008.6 10.0
04/01:03am ESE 6 11 - - - - 10 Partly cloudy - 24.4 1008.8 10.0
04/01:00am ESE 7 11 - - - - 10 Cloudy - 24.4 1008.8 10.0
04/12:30am ESE 8 10 - - - - 10 Partly cloudy - 24.4 1009.2 10.0
04/12:00am ESE 6 9 - - - - 10 Partly cloudy - 24.3 1009.6 10.0
 
Date/Time
WST
Wind Sea
Height
m
Swell Vis
km
Cloud Weather Temp
°C
Press
MSL
hPa
Rain since
9am
mm
Dir  Spd
kts
Gust
kts
Height
m
Period
s
Dir
03/11:58pm ESE 6 9 - - - - 10 Partly cloudy - 24.3 1009.7 10.0
03/11:53pm ESE 5 9 - - - - 10 Partly cloudy - 24.3 1009.7 10.0
03/11:30pm ESE 6 8 - - - - 10 Partly cloudy - 24.2 1009.6 10.0
03/11:00pm SE 7 10 - - - - 10 Partly cloudy - 24.3 1009.6 10.0
03/10:30pm ESE 8 11 - - - - 10 Partly cloudy - 24.5 1009.3 10.0
03/10:00pm ESE 7 11 - - - - 10 Cloudy - 24.5 1009.4 10.0
03/09:30pm ESE 7 10 - - - - 10 Partly cloudy - 24.4 1009.3 10.0
03/09:00pm ESE 6 7 - - - - 10 Partly cloudy - 24.3 1009.1 10.0
03/08:30pm CALM 0 0 - - - - 10 Cloudy - 23.8 1008.7 10.0
03/08:00pm CALM 0 0 - - - - 10 Partly cloudy - 23.7 1008.4 10.0
03/07:58pm CALM 0 0 - - - - 10 Partly cloudy - 23.7 1008.4 10.0
03/07:30pm CALM 0 0 - - - - 10 Partly cloudy - 24.0 1008.2 10.0
03/07:00pm CALM 0 0 - - - - 10 Mostly clear - 24.4 1007.8 10.0
03/06:30pm ENE 4 6 - - - - 10 Partly cloudy - 24.9 1007.8 10.0
03/06:00pm E 6 8 - - - - 10 Partly cloudy - 25.0 1007.5 10.0
03/05:46pm ENE 7 10 - - - - 10 Partly cloudy - 25.0 1007.4 10.0
03/05:30pm NE 8 11 - - - - 10 Partly cloudy - 25.2 1007.3 10.0
03/05:00pm NE 8 11 - - - - 10 Partly cloudy - 24.7 1007.4 10.0
03/04:30pm NE 7 10 - - - - 10 Partly cloudy - 25.3 1007.1 10.0
03/04:00pm NE 7 11 - - - - 10 Mostly cloudy - 25.1 1007.1 10.0
03/03:30pm ENE 8 11 - - - - 10 Cloudy - 25.5 1007.2 10.0
03/03:00pm ENE 9 13 - - - - 10 Partly cloudy - 26.0 1007.8 10.0
03/02:39pm NE 10 14 - - - - 10 Partly cloudy - 27.5 1008.0 10.0
03/02:30pm E 10 13 - - - - 10 Partly cloudy - 27.4 1008.0 10.0
03/02:13pm E 8 10 - - - - 10 Partly cloudy - 26.9 1008.4 10.0
03/02:00pm E 9 13 - - - - 10 Partly cloudy - 26.6 1008.5 10.0
03/01:30pm E 9 12 - - - - 10 Partly cloudy - 25.2 1008.9 10.0
03/01:00pm E 6 10 - - - - 10 Mostly cloudy - 25.0 1009.0 10.0
03/12:30pm S 2 5 - - - - 10 Partly cloudy - 23.6 1009.4 10.0
03/12:20pm ESE 4 7 - - - - 10 Partly cloudy - 23.5 1009.5 10.0
03/12:15pm E 5 8 - - - - 10 - - 23.4 1009.4 10.0
03/12:00pm ENE 7 10 - - - - 4 Partly cloudy - 23.3 1009.4 10.0
03/11:55am NE 8 11 - - - - 2 Partly cloudy - 23.4 1009.5 9.6
03/11:35am NE 11 19 - - - - 6 Partly cloudy - 24.0 1009.7 1.8
03/11:30am ENE 12 19 - - - - 10 Partly cloudy - 24.2 1009.8 1.2
03/11:05am E 8 13 - - - - 10 Partly cloudy - 25.5 1009.8 1.2
03/11:00am E 7 13 - - - - 10 Partly cloudy - 25.6 1009.8 1.2
03/10:40am NE 10 13 - - - - 6 Partly cloudy - 25.1 1009.6 0.0
03/10:30am ENE 10 15 - - - - 10 Cloudy - 25.0 1009.6 0.0
03/10:04am NE 10 16 - - - - 10 Partly cloudy - 25.5 1009.4 0.0
03/10:00am NE 10 16 - - - - 10 Cloudy - 25.4 1009.3 32.0
03/09:30am ESE 7 11 - - - - 0.5 Cloudy - 24.7 1009.2 32.0
03/09:00am ESE 4 6 - - - - 0.8 Cloudy - 24.1 1008.9 31.4
03/08:30am ESE 7 14 - - - - 0.1 Cloudy - 23.6 1008.8 29.2
03/08:00am SE 7 13 - - - - 2 Cloudy - 24.1 1008.5 26.4
03/07:39am E 7 10 - - - - 6 Partly cloudy - 24.3 1008.1 24.2
03/07:30am E 7 11 - - - - 10 Partly cloudy - 24.0 1008.0 24.2
03/07:00am ESE 8 13 - - - - 10 Cloudy - 24.3 1007.6 24.2
03/06:30am E 8 14 - - - - 10 Cloudy - 24.4 1007.3 24.2
03/06:00am E 9 13 - - - - 10 Cloudy - 24.5 1007.0 24.2
03/05:30am ESE 7 12 - - - - 10 Cloudy - 24.2 1006.9 24.2
03/05:00am E 8 11 - - - - 10 Cloudy - 24.4 1006.8 24.2
03/04:30am ENE 6 8 - - - - 10 Partly cloudy - 24.2 1007.0 24.2
03/04:24am ENE 6 8 - - - - 10 Partly cloudy - 24.2 1007.0 24.2
03/04:00am NE 9 17 - - - - 0.5 Cloudy - 23.6 1007.0 23.0
03/03:30am ENE 7 13 - - - - 2 Partly cloudy - 24.0 1007.3 5.6
03/03:23am E 8 13 - - - - 6 Partly cloudy - 24.3 1007.1 2.6
03/03:00am E 8 11 - - - - 10 Partly cloudy - 24.5 1007.3 2.4
03/02:30am E 7 11 - - - - 10 Partly cloudy - 24.2 1007.5 2.4
03/02:00am SE 6 12 - - - - 10 Cloudy - 24.4 1007.9 2.4
03/01:54am SE 5 9 - - - - 10 Partly cloudy - 24.3 1008.0 2.4
03/01:30am E 8 12 - - - - 4 Partly cloudy - 24.2 1008.3 0.4
03/01:24am ESE 8 12 - - - - 6 Partly cloudy - 24.4 1008.3 0.2
03/01:00am SE 7 10 - - - - 10 Cloudy - 24.5 1008.6 0.0
03/12:30am SE 6 8 - - - - 10 Partly cloudy - 24.3 1008.9 0.0
03/12:00am SE 5 8 - - - - 10 Cloudy - 24.2 1009.1 0.0
 
Date/Time
WST
Wind Sea
Height
m
Swell Vis
km
Cloud Weather Temp
°C
Press
MSL
hPa
Rain since
9am
mm
Dir  Spd
kts
Gust
kts
Height
m
Period
s
Dir
02/11:30pm SE 5 7 - - - - 10 Partly cloudy - 24.1 1009.2 0.0
02/11:00pm SE 5 8 - - - - 10 Partly cloudy - 24.2 1009.1 0.0
02/10:30pm ESE 6 9 - - - - 10 Partly cloudy - 24.4 1009.2 0.0
02/10:00pm ESE 6 9 - - - - 10 Cloudy - 24.4 1009.1 0.0
02/09:30pm ESE 6 9 - - - - 10 Partly cloudy - 24.4 1009.0 0.0
02/09:00pm ESE 5 9 - - - - 10 Partly cloudy - 24.4 1008.9 0.0
02/08:30pm SE 4 7 - - - - 10 Partly cloudy - 24.3 1008.7 0.0
02/08:00pm SSE 4 7 - - - - 10 Partly cloudy - 24.2 1008.5 0.0
02/07:36pm SE 4 7 - - - - 10 Partly cloudy - 24.3 1008.1 0.0
02/07:30pm SSE 4 6 - - - - 10 Partly cloudy - 24.2 1008.1 0.0
02/07:00pm SSE 3 5 - - - - 10 Cloudy - 24.5 1008.2 0.0
02/06:49pm SE 2 5 - - - - 10 Partly cloudy - 24.6 1008.1 0.0
02/06:30pm SE 5 7 - - - - 10 Partly cloudy - 24.8 1007.8 0.0
02/06:00pm SE 6 9 - - - - 10 Partly cloudy - 24.9 1007.6 0.0
02/05:30pm SE 6 9 - - - - 10 Partly cloudy - 25.7 1007.2 0.0
02/05:19pm ESE 6 8 - - - - 10 Partly cloudy - 25.5 1007.2 0.0
02/05:00pm SE 5 8 - - - - 10 Partly cloudy - 25.2 1007.1 0.0
02/04:30pm E 7 9 - - - - 10 Partly cloudy - 25.0 1007.1 0.0
02/04:21pm ESE 7 10 - - - - 10 Partly cloudy - 25.0 1007.1 0.0
02/04:00pm E 8 10 - - - - 10 Cloudy - 26.2 1007.3 0.0
02/03:30pm E 7 10 - - - - 10 Cloudy - 24.8 1007.4 0.0
02/03:00pm ESE 9 13 - - - - 10 Cloudy - 25.3 1007.9 0.0
02/02:39pm E 9 12 - - - - 10 Cloudy - 25.0 1008.2 0.0
02/02:30pm E 10 13 - - - - 10 Cloudy - 24.4 1008.4 0.0
02/02:24pm E 9 14 - - - - 1 Cloudy - 24.7 1008.4 0.0
02/02:14pm E 9 11 - - - - 0.8 Cloudy - 24.4 1008.5 0.0
02/02:00pm ENE 8 12 - - - - 5 Cloudy - 24.0 1008.7 0.0
02/01:50pm E 10 15 - - - - 0.5 Cloudy - 24.3 1008.8 0.0
02/01:46pm E 11 16 - - - - 0.3 Cloudy - 24.3 1008.8 0.0
02/01:44pm E 11 16 - - - - 0.3 Cloudy - 24.2 1008.9 0.0
02/01:40pm E 12 18 - - - - 0.7 Partly cloudy - 24.6 1008.9 0.0
02/01:36pm E 12 18 - - - - 5 Cloudy - 24.4 1008.9 0.0
02/01:30pm ESE 10 16 - - - - 10 Partly cloudy - 24.6 1008.9 0.0
02/01:05pm E 10 13 - - - - 10 Partly cloudy - 26.3 1009.0 0.0
02/01:01pm E 9 12 - - - - 10 Partly cloudy - 26.4 1009.1 0.0
02/01:00pm E 10 12 - - - - 10 Cloudy - 26.0 1009.1 0.0
02/12:30pm E 9 12 - - - - 10 Cloudy - 25.0 1009.4 0.0
02/12:11pm E 7 10 - - - - 10 Cloudy - 24.8 1009.6 0.0
02/12:00pm E 9 12 - - - - 5 Partly cloudy - 25.5 1009.6 0.0
02/11:53am E 9 13 - - - - 5 Partly cloudy - 24.8 1009.6 0.0
02/11:30am E 12 18 - - - - 10 Partly cloudy - 25.3 1009.8 0.0

Other formats

Comma delimited format used in spreadsheet applications
http://www.bom.gov.au/fwo/IDW60701/IDW60701.96995.axf

JavaScript Object Notation format (JSON) in row-major order
http://www.bom.gov.au/fwo/IDW60701/IDW60701.96995.json

Data quality

Most of these data are generated automatically and are frequently updated. Quality checks on data are not normally performed. It is possible for incorrect values to appear. Refer to information at About Latest Weather Observations and please check the disclaimer before using these data.